Pagrindinis puslapis
METAR-TAF:

METAR-TAF

Oro uostai :

Shishmaref, Aliaska, Jungtinės Amerikos Valstijos

platuma: 66-16N, ilguma: 166-03W, Aukštis: 2 m

Dabartinis oras

Ataskaita buvo paskelbta 20 minutes, ne 21:40 UTC
Vėjas 12 kt iš Šiaurės
Temperatūra 6°C
Drėgmė 81%
Slėgis 1000 hPa
Matomumas: 16.1 km
Su prošvaistėmis ne aukštis 2300 ft
Apsiniaukę ne aukštis 3700 ft

METAR: PASH 212140Z AUTO 36012KT 10SM BKN023 OVC037 06/03 A2954 RMK AO2

Laikas: 14:00 (22:00 UTC)


TAF: trūkstamas

Orai ataskaitas ir orų prognozės (METAR, TAF).

turimą stotys yra geltonos ir raudonos taškus žemėlapyje.

Perkelti pele per norėdami pamatyti stoties vardą.

Tada spustelėkite, norėdami matyti oro stebėjimo ir prognozės.

Norėdami pakeisti žemėlapį: spustelėkite ant žalios mygtukų su juodo kryžiaus žemyn,; žalią mygtuką su brūkšneliu, jei norite nutolinti; arba žalių rodyklių gretimoms žemėlapius.


METAR-TAF: